Pagrindinis puslapis
METAR-TAF:

METAR-TAF

Oro uostai :

Tin City, Aliaska, Jungtinės Amerikos Valstijos

platuma: 65-34N, ilguma: 167-55W, Aukštis: 83 m

Dabartinis oras

Ataskaita buvo paskelbta 13 minutes, ne 23:55 UTC
Vėjas 28 kt iš Šiaurės/Šiaurės Rytų
Temperatūra -17°C
Drėgmė 84%
Slėgis 1024 hPa
Matomumas: 4.0 km
Giedras dangus
rūkana

METAR: PATC 282355Z AUTO 02028KT 2 1/2SM BR CLR M17/M19 A3024 RMK AO2 PK WND 02031/2343 SLP254 T11751191 11176 21208 51015

Laikas: 16:08 (00:08 UTC)


TAF: trūkstamas

Orai ataskaitas ir orų prognozės (METAR, TAF).

turimą stotys yra geltonos ir raudonos taškus žemėlapyje.

Perkelti pele per norėdami pamatyti stoties vardą.

Tada spustelėkite, norėdami matyti oro stebėjimo ir prognozės.

Norėdami pakeisti žemėlapį: spustelėkite ant žalios mygtukų su juodo kryžiaus žemyn,; žalią mygtuką su brūkšneliu, jei norite nutolinti; arba žalių rodyklių gretimoms žemėlapius.


METAR-TAF: